Time;durP1;ratioP1;P1;durP2;ratioP2;P2;SDS_P1;SDS_P2;PMS_P1;PMS_P2;Temp;Humidity;BMP_temperature;BMP_pressure;BME280_temperature;BME280_humidity;BME280_pressure;Samples;Min_cycle;Max_cycle;Signal;HPM_P1;HPM_P2
2023/03/03 00:01:31;;;;;;;0.75;0.70;;;;;;;;;;5087320;28;20035;-85
2023/03/03 00:03:57;;;;;;;2.90;1.30;;;;;;;;;;5090383;28;20448;-82
2023/03/03 00:06:23;;;;;;;1.27;0.60;;;;;;;;;;5086147;28;20047;-82
2023/03/03 00:08:49;;;;;;;1.35;1.05;;;;;;;;;;5084313;28;20035;-83
2023/03/03 00:11:15;;;;;;;0.95;0.85;;;;;;;;;;5086524;28;20025;-83
2023/03/03 00:13:50;;;;;;;0.70;0.70;;;;;;;;;;5084305;28;20057;-83
2023/03/03 00:16:26;;;;;;;0.57;0.57;;;;;;;;;;5086613;28;20380;-85
2023/03/03 00:18:53;;;;;;;1.27;1.17;;;;;;;;;;5085998;28;20032;-84
2023/03/03 00:21:25;;;;;;;3.80;1.15;;;;;;;;;;5084157;28;20044;-85
2023/03/03 00:23:51;;;;;;;1.35;0.90;;;;;;;;;;5085480;28;20039;-86
2023/03/03 00:26:22;;;;;;;0.70;0.70;;;;;;;;;;5080676;28;20122;-86
2023/03/03 00:28:49;;;;;;;1.88;1.33;;;;;;;;;;5086839;28;20044;-87
2023/03/03 00:31:41;;;;;;;0.65;0.65;;;;;;;;;;5085579;28;20506;-85
2023/03/03 00:34:27;;;;;;;2.60;1.20;;;;;;;;;;5084522;28;20046;-83
2023/03/03 00:36:57;;;;;;;3.53;2.22;;;;;;;;;;5083316;28;20047;-86
2023/03/03 00:39:30;;;;;;;1.33;0.82;;;;;;;;;;5087217;28;20035;-85
2023/03/03 00:41:56;;;;;;;2.95;1.00;;;;;;;;;;5089267;28;20102;-88
2023/03/03 00:44:40;;;;;;;1.52;1.15;;;;;;;;;;5083672;28;20019;-82
2023/03/03 00:47:28;;;;;;;1.67;1.05;;;;;;;;;;5088512;28;20024;-83
2023/03/03 00:50:05;;;;;;;2.40;1.45;;;;;;;;;;5085196;28;20025;-84
2023/03/03 00:52:37;;;;;;;4.28;1.05;;;;;;;;;;5086517;28;20032;-83
2023/03/03 00:55:03;;;;;;;2.83;1.58;;;;;;;;;;5083535;28;20873;-84
2023/03/03 00:57:29;;;;;;;2.45;0.95;;;;;;;;;;5083272;28;20028;-83
2023/03/03 00:59:54;;;;;;;1.52;1.02;;;;;;;;;;5084324;28;21324;-85
2023/03/03 01:02:20;;;;;;;2.40;1.35;;;;;;;;;;5090787;28;20050;-83
2023/03/03 01:04:50;;;;;;;0.98;0.85;;;;;;;;;;5081788;28;20028;-84
2023/03/03 01:07:17;;;;;;;1.15;1.00;;;;;;;;;;5085958;28;20081;-83
2023/03/03 01:09:42;;;;;;;0.95;0.90;;;;;;;;;;5083944;28;20028;-83
2023/03/03 01:12:09;;;;;;;3.17;1.33;;;;;;;;;;5085267;28;20099;-85
2023/03/03 01:14:35;;;;;;;2.42;1.77;;;;;;;;;;5089078;28;20054;-82
2023/03/03 01:17:02;;;;;;;3.47;1.40;;;;;;;;;;5092141;28;20026;-85
2023/03/03 01:19:27;;;;;;;2.15;0.70;;;;;;;;;;5087076;28;20028;-85
2023/03/03 01:21:52;;;;;;;1.65;1.30;;;;;;;;;;5091212;28;20031;-82
2023/03/03 01:24:18;;;;;;;1.35;1.23;;;;;;;;;;5079421;28;20499;-82
2023/03/03 01:26:43;;;;;;;1.65;1.17;;;;;;;;;;5088477;28;20024;-83
2023/03/03 01:29:09;;;;;;;2.33;1.33;;;;;;;;;;5090077;28;20064;-86
2023/03/03 01:31:34;;;;;;;2.00;1.27;;;;;;;;;;5089454;28;20467;-86
2023/03/03 01:34:00;;;;;;;3.38;1.55;;;;;;;;;;5090632;28;20024;-86
2023/03/03 01:36:27;;;;;;;1.65;1.05;;;;;;;;;;5089574;28;20383;-85
2023/03/03 01:38:53;;;;;;;1.70;0.88;;;;;;;;;;5081410;28;20056;-85
2023/03/03 01:41:18;;;;;;;2.47;1.60;;;;;;;;;;5091232;28;20441;-85
2023/03/03 01:43:46;;;;;;;2.00;1.35;;;;;;;;;;5085495;28;20032;-86
2023/03/03 01:46:30;;;;;;;2.88;1.80;;;;;;;;;;5087543;28;20933;-85
2023/03/03 01:49:02;;;;;;;2.83;1.52;;;;;;;;;;5089032;28;20028;-86
2023/03/03 01:51:32;;;;;;;1.08;0.82;;;;;;;;;;5083961;28;20122;-86
2023/03/03 01:54:13;;;;;;;1.70;1.55;;;;;;;;;;5085617;28;20108;-86
2023/03/03 01:56:41;;;;;;;1.42;1.13;;;;;;;;;;5088818;28;20032;-85
2023/03/03 01:59:13;;;;;;;2.42;1.27;;;;;;;;;;5086017;28;20024;-86
2023/03/03 02:01:39;;;;;;;2.60;2.30;;;;;;;;;;5086271;28;20028;-85
2023/03/03 02:04:05;;;;;;;3.03;1.60;;;;;;;;;;5089791;28;20020;-83
2023/03/03 02:06:35;;;;;;;4.00;1.90;;;;;;;;;;5087553;28;20093;-83
2023/03/03 02:09:22;;;;;;;0.93;0.82;;;;;;;;;;5090210;28;20383;-83
2023/03/03 02:11:51;;;;;;;1.02;0.73;;;;;;;;;;5090527;28;20024;-84
2023/03/03 02:14:16;;;;;;;0.90;0.90;;;;;;;;;;5090791;28;20025;-84
2023/03/03 02:16:42;;;;;;;1.77;1.42;;;;;;;;;;5086206;28;20269;-86
2023/03/03 02:19:17;;;;;;;1.40;1.30;;;;;;;;;;5086105;28;20434;-84
2023/03/03 02:21:43;;;;;;;3.40;1.83;;;;;;;;;;5085051;28;20020;-85
2023/03/03 02:24:27;;;;;;;2.72;1.25;;;;;;;;;;5086662;28;20412;-85
2023/03/03 02:26:53;;;;;;;1.73;1.52;;;;;;;;;;5111412;28;20040;-87
2023/03/03 02:29:18;;;;;;;1.02;0.88;;;;;;;;;;5087089;28;20468;-87
2023/03/03 02:31:44;;;;;;;0.88;0.82;;;;;;;;;;5085258;28;20127;-86
2023/03/03 02:34:09;;;;;;;1.00;0.90;;;;;;;;;;5085573;28;20024;-84
2023/03/03 02:36:37;;;;;;;1.17;0.88;;;;;;;;;;5086264;28;20031;-84
2023/03/03 02:39:09;;;;;;;0.82;0.73;;;;;;;;;;5110500;28;20016;-87
2023/03/03 02:41:54;;;;;;;2.53;0.85;;;;;;;;;;5087292;28;20082;-86
2023/03/03 02:44:25;;;;;;;1.40;0.82;;;;;;;;;;5084546;28;20024;-86
2023/03/03 02:46:52;;;;;;;3.40;0.77;;;;;;;;;;5088682;28;20024;-85
2023/03/03 02:49:23;;;;;;;1.17;0.90;;;;;;;;;;5089023;28;20611;-84
2023/03/03 02:51:49;;;;;;;2.05;1.77;;;;;;;;;;5086894;28;20024;-84
2023/03/03 02:54:17;;;;;;;3.65;1.58;;;;;;;;;;5087242;28;20035;-85
2023/03/03 02:56:42;;;;;;;3.47;1.75;;;;;;;;;;5087346;28;20491;-86
2023/03/03 02:59:08;;;;;;;0.95;0.90;;;;;;;;;;5089975;28;20020;-85
2023/03/03 03:01:35;;;;;;;4.03;2.17;;;;;;;;;;5085383;28;20025;-85
2023/03/03 03:04:07;;;;;;;1.52;0.98;;;;;;;;;;5091334;28;20020;-84
2023/03/03 03:06:33;;;;;;;2.60;1.90;;;;;;;;;;5100927;28;20028;-86
2023/03/03 03:08:59;;;;;;;2.22;1.08;;;;;;;;;;5090921;28;20028;-84
2023/03/03 03:11:25;;;;;;;3.22;1.80;;;;;;;;;;5091809;28;20080;-84
2023/03/03 03:13:50;;;;;;;2.53;1.38;;;;;;;;;;5084282;28;20029;-85
2023/03/03 03:16:16;;;;;;;1.85;1.10;;;;;;;;;;5086069;28;20023;-84
2023/03/03 03:18:42;;;;;;;1.83;1.20;;;;;;;;;;5085828;28;20035;-85
2023/03/03 03:21:09;;;;;;;1.27;1.20;;;;;;;;;;5088896;28;20522;-84
2023/03/03 03:23:35;;;;;;;1.38;1.05;;;;;;;;;;5087449;28;20111;-86
2023/03/03 03:26:01;;;;;;;1.40;1.30;;;;;;;;;;5083582;28;20122;-85
2023/03/03 03:28:26;;;;;;;1.63;1.17;;;;;;;;;;5089176;28;20024;-85
2023/03/03 03:30:51;;;;;;;3.08;1.13;;;;;;;;;;5085138;28;20036;-85
2023/03/03 03:33:17;;;;;;;1.92;1.40;;;;;;;;;;5087793;28;20016;-86
2023/03/03 03:35:45;;;;;;;1.85;1.25;;;;;;;;;;5087529;28;20154;-82
2023/03/03 03:38:12;;;;;;;3.40;1.52;;;;;;;;;;5084642;28;20051;-84
2023/03/03 03:40:38;;;;;;;4.28;2.22;;;;;;;;;;5087454;28;20028;-86
2023/03/03 03:43:03;;;;;;;2.00;1.05;;;;;;;;;;5086178;28;20028;-83
2023/03/03 03:45:29;;;;;;;1.52;1.27;;;;;;;;;;5082750;28;20468;-82
2023/03/03 03:47:54;;;;;;;2.35;1.20;;;;;;;;;;5086728;28;20050;-84
2023/03/03 03:50:20;;;;;;;0.77;0.77;;;;;;;;;;5080115;28;20020;-82
2023/03/03 03:52:45;;;;;;;1.65;1.20;;;;;;;;;;5083084;28;20384;-84
2023/03/03 03:55:11;;;;;;;2.25;1.08;;;;;;;;;;5088946;28;20383;-83
2023/03/03 03:57:36;;;;;;;2.03;1.00;;;;;;;;;;5083169;28;20044;-82
2023/03/03 04:00:04;;;;;;;1.58;1.00;;;;;;;;;;5086592;28;20026;-86
2023/03/03 04:02:29;;;;;;;0.90;0.88;;;;;;;;;;5079387;28;20142;-87
2023/03/03 04:04:54;;;;;;;1.13;0.80;;;;;;;;;;5083516;28;20058;-82
2023/03/03 04:07:20;;;;;;;2.03;1.45;;;;;;;;;;5092338;28;20544;-83
2023/03/03 04:09:45;;;;;;;2.05;1.30;;;;;;;;;;5089442;28;20070;-83
2023/03/03 04:12:11;;;;;;;1.33;0.90;;;;;;;;;;5087901;28;20020;-82
2023/03/03 04:14:37;;;;;;;2.38;1.80;;;;;;;;;;5087654;28;20357;-82
2023/03/03 04:17:02;;;;;;;2.35;1.80;;;;;;;;;;5081621;28;20472;-84
2023/03/03 04:19:28;;;;;;;2.65;1.50;;;;;;;;;;5083194;28;20031;-82
2023/03/03 04:21:53;;;;;;;2.55;1.70;;;;;;;;;;5082383;28;20474;-80
2023/03/03 04:24:19;;;;;;;2.95;1.48;;;;;;;;;;5087118;28;20016;-83
2023/03/03 04:26:44;;;;;;;1.75;1.63;;;;;;;;;;5087265;28;20024;-84
2023/03/03 04:29:10;;;;;;;2.95;1.35;;;;;;;;;;5085453;28;20078;-82
2023/03/03 04:31:35;;;;;;;2.63;1.67;;;;;;;;;;5082246;28;20044;-82
2023/03/03 04:34:03;;;;;;;2.25;1.30;;;;;;;;;;5080860;28;20028;-85
2023/03/03 04:36:29;;;;;;;1.77;1.10;;;;;;;;;;5084313;28;20054;-81
2023/03/03 04:38:54;;;;;;;1.35;1.25;;;;;;;;;;5087294;28;20523;-83
2023/03/03 04:41:20;;;;;;;1.58;1.38;;;;;;;;;;5084832;28;20108;-83
2023/03/03 04:43:45;;;;;;;2.88;2.40;;;;;;;;;;5081305;28;20027;-81
2023/03/03 04:46:10;;;;;;;1.80;1.63;;;;;;;;;;5079959;28;20032;-83
2023/03/03 04:48:37;;;;;;;3.25;1.75;;;;;;;;;;5080898;28;20062;-81
2023/03/03 04:51:03;;;;;;;2.25;1.33;;;;;;;;;;5085120;28;20368;-85
2023/03/03 04:53:28;;;;;;;1.67;1.25;;;;;;;;;;5084158;28;20138;-80
2023/03/03 04:55:53;;;;;;;1.02;0.93;;;;;;;;;;5089046;28;20464;-80
2023/03/03 04:58:19;;;;;;;1.83;1.55;;;;;;;;;;5081920;28;20028;-78
2023/03/03 05:00:55;;;;;;;0.65;0.65;;;;;;;;;;5078470;28;20051;-81
2023/03/03 05:03:21;;;;;;;1.63;1.52;;;;;;;;;;5104282;28;20024;-86
2023/03/03 05:05:47;;;;;;;1.05;0.98;;;;;;;;;;5085922;28;20468;-82
2023/03/03 05:08:13;;;;;;;0.93;0.90;;;;;;;;;;5085540;28;20029;-79
2023/03/03 05:10:38;;;;;;;1.88;1.27;;;;;;;;;;5088574;28;20425;-81
2023/03/03 05:13:05;;;;;;;2.25;1.50;;;;;;;;;;5081068;28;20028;-84
2023/03/03 05:15:31;;;;;;;1.17;1.08;;;;;;;;;;5089322;28;20031;-82
2023/03/03 05:17:57;;;;;;;1.20;1.10;;;;;;;;;;5107283;28;20081;-82
2023/03/03 05:20:23;;;;;;;1.95;1.52;;;;;;;;;;5084464;28;20578;-83
2023/03/03 05:22:49;;;;;;;0.95;0.95;;;;;;;;;;5085988;28;21922;-81
2023/03/03 05:25:14;;;;;;;2.67;2.40;;;;;;;;;;5082012;28;20108;-81
2023/03/03 05:27:40;;;;;;;2.33;1.50;;;;;;;;;;5079115;28;20023;-80
2023/03/03 05:30:06;;;;;;;5.18;2.80;;;;;;;;;;5090058;28;20059;-80
2023/03/03 05:32:31;;;;;;;1.38;1.27;;;;;;;;;;5085008;28;20415;-79
2023/03/03 05:34:57;;;;;;;1.52;1.42;;;;;;;;;;5079299;28;20040;-81
2023/03/03 05:37:23;;;;;;;1.25;1.10;;;;;;;;;;5087081;28;20035;-83
2023/03/03 05:39:49;;;;;;;1.15;0.85;;;;;;;;;;5086972;28;20062;-78
2023/03/03 05:42:14;;;;;;;1.27;1.08;;;;;;;;;;5083035;28;20085;-80
2023/03/03 05:44:40;;;;;;;0.90;0.90;;;;;;;;;;5088232;28;20102;-79
2023/03/03 05:47:05;;;;;;;1.73;0.95;;;;;;;;;;5086398;28;20028;-80
2023/03/03 05:49:31;;;;;;;1.25;1.05;;;;;;;;;;5083429;28;20035;-82
2023/03/03 05:51:58;;;;;;;0.65;0.65;;;;;;;;;;5081792;28;20477;-81
2023/03/03 05:54:23;;;;;;;1.95;1.48;;;;;;;;;;5082731;28;20024;-79
2023/03/03 05:56:49;;;;;;;1.35;1.08;;;;;;;;;;5087883;28;20038;-79
2023/03/03 05:59:14;;;;;;;1.63;1.30;;;;;;;;;;5089491;28;20035;-80
2023/03/03 06:01:40;;;;;;;1.70;1.33;;;;;;;;;;5083909;28;20065;-78
2023/03/03 06:04:05;;;;;;;1.40;1.10;;;;;;;;;;5083468;28;20020;-79
2023/03/03 06:06:31;;;;;;;2.13;1.27;;;;;;;;;;5090727;28;20037;-81
2023/03/03 06:08:56;;;;;;;0.88;0.88;;;;;;;;;;5086065;28;20024;-79
2023/03/03 06:11:22;;;;;;;3.10;1.52;;;;;;;;;;5084163;28;20040;-79
2023/03/03 06:13:47;;;;;;;1.05;0.70;;;;;;;;;;5084212;28;20020;-79
2023/03/03 06:16:12;;;;;;;4.90;2.80;;;;;;;;;;5089023;28;20156;-79
2023/03/03 06:18:38;;;;;;;10.27;5.13;;;;;;;;;;5086039;28;20020;-78
2023/03/03 06:21:03;;;;;;;10.23;5.15;;;;;;;;;;5088080;28;20020;-79
2023/03/03 06:23:29;;;;;;;1.55;1.38;;;;;;;;;;5084139;28;20103;-80
2023/03/03 06:25:54;;;;;;;3.00;1.50;;;;;;;;;;5086310;28;20460;-82
2023/03/03 06:28:19;;;;;;;2.20;1.52;;;;;;;;;;5088442;28;20618;-79
2023/03/03 06:30:45;;;;;;;1.20;1.10;;;;;;;;;;5080536;28;20044;-79
2023/03/03 06:33:10;;;;;;;2.38;1.48;;;;;;;;;;5083469;28;20047;-80
2023/03/03 06:35:36;;;;;;;1.65;1.55;;;;;;;;;;5083343;28;20446;-80
2023/03/03 06:38:02;;;;;;;2.42;2.20;;;;;;;;;;5085215;28;20024;-82
2023/03/03 06:40:27;;;;;;;2.92;1.98;;;;;;;;;;5084763;28;20054;-81
2023/03/03 06:42:53;;;;;;;2.80;1.48;;;;;;;;;;5092705;28;20495;-81
2023/03/03 06:45:18;;;;;;;1.17;1.08;;;;;;;;;;5085803;28;20068;-78
2023/03/03 06:47:44;;;;;;;1.17;1.08;;;;;;;;;;5088925;28;20098;-81
2023/03/03 06:50:10;;;;;;;2.10;1.38;;;;;;;;;;5084369;28;20031;-79
2023/03/03 06:52:36;;;;;;;2.55;1.67;;;;;;;;;;5085648;28;20039;-80
2023/03/03 06:55:12;;;;;;;2.05;1.20;;;;;;;;;;5085961;28;20384;-79
2023/03/03 06:57:37;;;;;;;5.28;2.70;;;;;;;;;;5084719;28;20512;-79
2023/03/03 07:00:14;;;;;;;3.33;2.22;;;;;;;;;;5081563;28;20075;-80
2023/03/03 07:02:40;;;;;;;1.88;1.58;;;;;;;;;;5089243;28;20540;-80
2023/03/03 07:05:14;;;;;;;4.32;1.50;;;;;;;;;;5104875;28;20104;-79
2023/03/03 07:07:39;;;;;;;2.08;1.65;;;;;;;;;;5106545;28;20034;-80
2023/03/03 07:10:22;;;;;;;2.30;1.67;;;;;;;;;;5078668;28;20020;-80
2023/03/03 07:12:48;;;;;;;1.23;0.95;;;;;;;;;;5089238;28;20062;-81
2023/03/03 07:15:33;;;;;;;2.40;1.75;;;;;;;;;;5085252;28;20027;-80
2023/03/03 07:17:59;;;;;;;2.05;1.77;;;;;;;;;;5084448;28;20046;-80
2023/03/03 07:20:32;;;;;;;1.75;1.38;;;;;;;;;;5086291;28;20076;-81
2023/03/03 07:22:58;;;;;;;1.48;0.90;;;;;;;;;;5088347;28;20110;-80
2023/03/03 07:25:31;;;;;;;8.07;1.52;;;;;;;;;;5083373;28;20166;-81
2023/03/03 07:28:22;;;;;;;2.70;1.50;;;;;;;;;;5081168;28;20570;-82
2023/03/03 07:30:48;;;;;;;1.77;1.48;;;;;;;;;;5082464;28;20076;-80
2023/03/03 07:33:33;;;;;;;6.07;2.25;;;;;;;;;;5089849;28;20056;-80
2023/03/03 07:36:00;;;;;;;2.65;1.73;;;;;;;;;;5089290;28;20090;-79
2023/03/03 07:38:57;;;;;;;3.25;1.73;;;;;;;;;;5089701;28;20020;-82
2023/03/03 07:41:23;;;;;;;4.28;2.60;;;;;;;;;;5087809;28;20124;-81
2023/03/03 07:43:49;;;;;;;4.35;2.45;;;;;;;;;;5083713;28;20423;-81
2023/03/03 07:46:24;;;;;;;4.20;3.22;;;;;;;;;;5088629;28;20122;-79
2023/03/03 07:48:51;;;;;;;6.80;3.60;;;;;;;;;;5086729;28;20024;-79
2023/03/03 07:51:26;;;;;;;9.95;5.95;;;;;;;;;;5088810;28;20031;-78
2023/03/03 07:54:17;;;;;;;7.47;3.63;;;;;;;;;;5085421;28;20487;-81
2023/03/03 07:56:43;;;;;;;7.70;2.53;;;;;;;;;;5087899;28;20027;-80
2023/03/03 07:59:19;;;;;;;4.85;3.47;;;;;;;;;;5105782;28;20059;-80
2023/03/03 08:01:49;;;;;;;5.72;2.88;;;;;;;;;;5087813;28;20110;-80
2023/03/03 08:04:21;;;;;;;;;;;;;;;;;;5087586;28;20464;-80
2023/03/03 08:06:50;;;;;;;4.05;2.92;;;;;;;;;;5082373;28;19912;-80
2023/03/03 08:09:18;;;;;;;6.03;3.15;;;;;;;;;;5105978;28;20024;-80
2023/03/03 08:11:52;;;;;;;2.20;1.65;;;;;;;;;;5086753;28;20034;-79
2023/03/03 08:14:26;;;;;;;4.20;2.25;;;;;;;;;;5083672;28;20430;-79
2023/03/03 08:16:51;;;;;;;5.00;2.38;;;;;;;;;;5083699;28;20043;-82
2023/03/03 08:19:17;;;;;;;3.00;1.88;;;;;;;;;;5088134;28;20027;-80
2023/03/03 08:21:43;;;;;;;3.90;2.50;;;;;;;;;;5083951;28;20054;-81
2023/03/03 08:24:08;;;;;;;3.25;2.40;;;;;;;;;;5084317;28;20040;-79
2023/03/03 08:26:34;;;;;;;2.83;2.08;;;;;;;;;;5088231;28;20035;-78
2023/03/03 08:29:00;;;;;;;5.25;2.60;;;;;;;;;;5089929;28;20464;-78
2023/03/03 08:31:25;;;;;;;4.47;3.08;;;;;;;;;;5081104;28;20119;-79
2023/03/03 08:33:51;;;;;;;2.50;2.10;;;;;;;;;;5089567;28;20932;-80
2023/03/03 08:36:17;;;;;;;5.25;3.75;;;;;;;;;;5077764;28;20034;-80
2023/03/03 08:38:42;;;;;;;4.60;2.75;;;;;;;;;;5084713;28;20032;-78
2023/03/03 08:41:08;;;;;;;3.70;1.98;;;;;;;;;;5086301;28;20020;-79
2023/03/03 08:43:33;;;;;;;3.80;2.50;;;;;;;;;;5079849;28;20035;-80
2023/03/03 08:46:02;;;;;;;3.67;2.03;;;;;;;;;;5088384;28;20025;-80
2023/03/03 08:48:28;;;;;;;4.38;2.45;;;;;;;;;;5087733;28;20423;-78
2023/03/03 08:50:54;;;;;;;2.70;2.13;;;;;;;;;;5088916;28;20123;-80
2023/03/03 08:53:21;;;;;;;2.65;1.83;;;;;;;;;;5089006;28;20051;-80
2023/03/03 08:55:46;;;;;;;3.08;1.92;;;;;;;;;;5084131;28;20107;-81
2023/03/03 08:58:13;;;;;;;8.18;3.00;;;;;;;;;;5086226;28;20115;-80
2023/03/03 09:00:39;;;;;;;2.95;2.33;;;;;;;;;;5086553;28;20028;-81
2023/03/03 09:03:08;;;;;;;3.83;2.70;;;;;;;;;;5103740;28;20024;-82
2023/03/03 09:05:35;;;;;;;5.05;3.15;;;;;;;;;;5086722;28;20456;-79
2023/03/03 09:08:01;;;;;;;5.30;2.75;;;;;;;;;;5088305;28;20028;-81
2023/03/03 09:10:29;;;;;;;2.58;1.45;;;;;;;;;;5087296;28;20028;-82
2023/03/03 09:13:03;;;;;;;5.57;2.58;;;;;;;;;;5081349;28;20023;-82
2023/03/03 09:15:32;;;;;;;2.78;2.13;;;;;;;;;;5084638;28;20077;-83
2023/03/03 09:18:34;;;;;;;2.15;1.33;;;;;;;;;;5086221;28;20035;-83
2023/03/03 09:20:59;;;;;;;1.80;1.52;;;;;;;;;;5090211;28;20040;-80
2023/03/03 09:23:36;;;;;;;6.63;3.20;;;;;;;;;;5087012;28;20069;-83
2023/03/03 09:26:29;;;;;;;3.30;2.40;;;;;;;;;;5087308;28;20053;-82
2023/03/03 09:29:07;;;;;;;4.50;2.60;;;;;;;;;;5088374;28;20024;-81
2023/03/03 09:31:41;;;;;;;4.45;3.30;;;;;;;;;;5089105;28;20111;-81
2023/03/03 09:34:22;;;;;;;3.92;2.25;;;;;;;;;;5084095;28;20031;-83
2023/03/03 09:36:48;;;;;;;7.35;4.38;;;;;;;;;;5091697;28;20953;-82
2023/03/03 09:39:22;;;;;;;8.05;4.28;;;;;;;;;;5088517;28;20035;-83
2023/03/03 09:42:11;;;;;;;5.75;2.65;;;;;;;;;;5091546;28;20028;-83
2023/03/03 09:44:59;;;;;;;11.05;3.65;;;;;;;;;;5106737;28;20391;-82
2023/03/03 09:47:33;;;;;;;3.83;2.75;;;;;;;;;;5084040;28;20472;-83
2023/03/03 09:50:11;;;;;;;4.20;3.05;;;;;;;;;;5085268;28;20024;-82
2023/03/03 09:52:43;;;;;;;3.53;2.50;;;;;;;;;;5107994;28;20024;-83
2023/03/03 09:55:12;;;;;;;7.18;3.38;;;;;;;;;;5084166;28;20383;-83
2023/03/03 09:57:55;;;;;;;4.95;3.55;;;;;;;;;;5108502;28;20024;-82
2023/03/03 10:00:27;;;;;;;3.95;2.97;;;;;;;;;;5091513;28;20542;-83
2023/03/03 10:03:10;;;;;;;5.47;2.95;;;;;;;;;;5088331;28;20032;-83
2023/03/03 10:05:41;;;;;;;3.22;2.03;;;;;;;;;;5093519;28;20411;-84
2023/03/03 10:08:51;;;;;;;3.97;2.90;;;;;;;;;;5083343;28;20043;-83
2023/03/03 10:11:27;;;;;;;4.55;3.72;;;;;;;;;;5071963;28;20048;-84
2023/03/03 10:14:24;;;;;;;3.95;2.85;;;;;;;;;;5092499;28;20077;-82
2023/03/03 10:16:55;;;;;;;3.15;2.25;;;;;;;;;;5063117;28;20051;-83
2023/03/03 10:19:59;;;;;;;5.13;3.47;;;;;;;;;;5086204;28;20020;-82
2023/03/03 10:22:42;;;;;;;4.63;2.90;;;;;;;;;;5067387;28;20476;-82
2023/03/03 10:25:21;;;;;;;4.28;2.90;;;;;;;;;;5082229;28;20391;-83
2023/03/03 10:28:28;;;;;;;4.00;2.65;;;;;;;;;;5084113;28;20084;-82
2023/03/03 10:31:08;;;;;;;3.13;2.08;;;;;;;;;;5083890;28;20051;-82
2023/03/03 10:33:52;;;;;;;2.75;2.28;;;;;;;;;;5089346;28;20030;-82
2023/03/03 10:36:23;;;;;;;4.53;3.30;;;;;;;;;;5082055;28;20028;-83
2023/03/03 10:38:54;;;;;;;3.97;3.08;;;;;;;;;;5088148;28;20023;-82
2023/03/03 10:41:28;;;;;;;4.32;3.05;;;;;;;;;;5083025;28;20028;-81
2023/03/03 10:44:03;;;;;;;6.68;4.10;;;;;;;;;;5089084;28;20031;-81
2023/03/03 10:46:45;;;;;;;5.13;3.25;;;;;;;;;;5086745;28;20016;-82
2023/03/03 10:49:18;;;;;;;4.53;2.75;;;;;;;;;;5083927;28;20020;-82
2023/03/03 10:52:02;;;;;;;2.63;2.38;;;;;;;;;;5086067;28;20173;-82
2023/03/03 10:54:58;;;;;;;9.95;4.57;;;;;;;;;;5087862;28;20471;-82
2023/03/03 10:57:58;;;;;;;7.18;3.97;;;;;;;;;;5081846;28;20024;-82
2023/03/03 11:00:30;;;;;;;7.75;3.72;;;;;;;;;;5080433;28;20442;-82
2023/03/03 11:03:17;;;;;;;6.00;3.55;;;;;;;;;;5079053;28;20024;-81
2023/03/03 11:05:49;;;;;;;5.25;2.97;;;;;;;;;;5092138;28;20032;-80
2023/03/03 11:08:25;;;;;;;4.57;3.33;;;;;;;;;;5084771;28;20395;-82
2023/03/03 11:10:57;;;;;;;2.85;2.45;;;;;;;;;;5078996;28;20031;-82
2023/03/03 11:13:51;;;;;;;5.20;3.72;;;;;;;;;;5092644;28;20070;-81
2023/03/03 11:16:54;;;;;;;9.73;4.95;;;;;;;;;;5079441;28;20127;-81
2023/03/03 11:19:24;;;;;;;7.95;5.00;;;;;;;;;;5080649;28;20099;-82
2023/03/03 11:21:58;;;;;;;11.80;6.60;;;;;;;;;;5081610;28;20062;-87
2023/03/03 11:24:58;;;;;;;5.78;3.47;;;;;;;;;;5106973;28;20028;-82
2023/03/03 11:27:47;;;;;;;3.95;2.47;;;;;;;;;;5082627;28;20040;-86
2023/03/03 11:30:38;;;;;;;5.57;3.30;;;;;;;;;;5084610;28;20028;-84
2023/03/03 11:33:08;;;;;;;5.68;4.15;;;;;;;;;;5087204;28;20089;-84
2023/03/03 11:35:48;;;;;;;7.45;3.90;;;;;;;;;;5086135;28;20483;-84
2023/03/03 11:38:22;;;;;;;3.55;3.25;;;;;;;;;;5105228;28;20067;-84
2023/03/03 11:40:52;;;;;;;5.30;3.78;;;;;;;;;;5086545;28;20055;-83
2023/03/03 11:43:27;;;;;;;5.97;3.70;;;;;;;;;;5103485;28;20051;-84
2023/03/03 11:45:58;;;;;;;7.82;4.32;;;;;;;;;;5084467;28;20020;-82
2023/03/03 11:48:44;;;;;;;11.85;5.60;;;;;;;;;;5084813;28;20356;-80
2023/03/03 11:51:31;;;;;;;11.32;5.43;;;;;;;;;;5091682;28;20015;-81
2023/03/03 11:54:02;;;;;;;4.68;3.40;;;;;;;;;;5088293;28;20116;-82
2023/03/03 11:56:38;;;;;;;5.15;3.40;;;;;;;;;;5089245;28;20056;-81
2023/03/03 11:59:03;;;;;;;5.50;4.25;;;;;;;;;;5085061;28;20027;-80
2023/03/03 12:01:38;;;;;;;7.05;5.47;;;;;;;;;;5087924;28;20036;-82
2023/03/03 12:04:10;;;;;;;9.57;5.65;;;;;;;;;;5084516;28;20021;-81
2023/03/03 12:07:04;;;;;;;11.13;6.05;;;;;;;;;;5085045;28;20505;-80
2023/03/03 12:09:59;;;;;;;7.28;5.00;;;;;;;;;;5086771;28;20103;-82
2023/03/03 12:12:37;;;;;;;10.30;6.03;;;;;;;;;;5087930;28;20035;-82
2023/03/03 12:15:26;;;;;;;8.65;5.22;;;;;;;;;;5081663;28;20186;-81
2023/03/03 12:18:13;;;;;;;4.25;3.55;;;;;;;;;;5078158;28;20089;-81
2023/03/03 12:20:51;;;;;;;7.70;5.63;;;;;;;;;;5101519;27;20024;-80
2023/03/03 12:23:28;;;;;;;8.10;4.97;;;;;;;;;;5081356;28;20035;-80
2023/03/03 12:26:02;;;;;;;8.57;4.45;;;;;;;;;;5100697;28;20101;-80
2023/03/03 12:28:39;;;;;;;7.15;4.68;;;;;;;;;;5088832;28;20039;-81
2023/03/03 12:31:12;;;;;;;6.63;3.47;;;;;;;;;;5081446;28;20040;-81
2023/03/03 12:34:00;;;;;;;5.93;3.55;;;;;;;;;;5087861;28;20049;-83
2023/03/03 12:36:55;;;;;;;6.13;3.80;;;;;;;;;;5089761;28;20381;-81
2023/03/03 12:39:37;;;;;;;5.65;3.67;;;;;;;;;;5083602;28;20040;-80
2023/03/03 12:42:13;;;;;;;8.25;4.78;;;;;;;;;;5076697;28;20028;-82
2023/03/03 12:44:44;;;;;;;11.38;4.93;;;;;;;;;;5082372;28;20102;-84
2023/03/03 12:47:20;;;;;;;8.68;5.57;;;;;;;;;;5079783;28;20041;-81
2023/03/03 12:50:08;;;;;;;8.20;5.28;;;;;;;;;;5089438;28;20479;-81
2023/03/03 12:53:02;;;;;;;5.30;4.25;;;;;;;;;;5080116;28;20048;-82
2023/03/03 12:55:39;;;;;;;9.93;4.55;;;;;;;;;;5076988;28;20020;-82
2023/03/03 12:58:32;;;;;;;8.02;4.45;;;;;;;;;;5084987;28;20081;-82
2023/03/03 13:01:36;;;;;;;5.78;4.10;;;;;;;;;;5081386;28;20055;-80
2023/03/03 13:04:31;;;;;;;5.60;2.50;;;;;;;;;;5082602;28;20043;-81
2023/03/03 13:07:25;;;;;;;3.67;2.30;;;;;;;;;;5082117;28;20461;-83
2023/03/03 13:10:17;;;;;;;4.05;2.40;;;;;;;;;;5097983;28;20050;-82
2023/03/03 13:13:13;;;;;;;5.82;3.85;;;;;;;;;;5086803;28;20020;-82
2023/03/03 13:15:55;;;;;;;4.63;3.45;;;;;;;;;;5081904;28;20033;-83
2023/03/03 13:18:52;;;;;;;4.88;3.25;;;;;;;;;;5084271;28;20468;-82
2023/03/03 13:21:34;;;;;;;6.15;2.92;;;;;;;;;;5085640;28;20091;-83
2023/03/03 13:24:23;;;;;;;8.27;4.63;;;;;;;;;;5107196;28;20039;-84
2023/03/03 13:27:21;;;;;;;6.40;4.70;;;;;;;;;;5079773;28;20032;-83
2023/03/03 13:29:55;;;;;;;11.00;4.90;;;;;;;;;;5079262;28;20514;-82
2023/03/03 13:32:42;;;;;;;10.48;5.90;;;;;;;;;;5082209;28;20044;-83
2023/03/03 13:35:41;;;;;;;8.82;5.53;;;;;;;;;;5083061;28;20045;-83
2023/03/03 13:38:17;;;;;;;6.90;4.90;;;;;;;;;;5082707;28;20040;-83
2023/03/03 13:40:47;;;;;;;9.25;5.72;;;;;;;;;;5078516;28;20143;-80
2023/03/03 13:43:21;;;;;;;5.20;4.47;;;;;;;;;;5084886;28;20050;-80
2023/03/03 13:46:04;;;;;;;6.30;4.40;;;;;;;;;;5084851;28;20024;-81
2023/03/03 13:48:39;;;;;;;10.20;5.60;;;;;;;;;;5104695;28;20032;-81
2023/03/03 13:51:08;;;;;;;4.90;4.03;;;;;;;;;;5085004;28;20028;-79
2023/03/03 13:54:16;;;;;;;9.55;5.00;;;;;;;;;;5080634;28;20028;-80
2023/03/03 13:56:59;;;;;;;11.10;4.63;;;;;;;;;;5075735;28;20054;-80
2023/03/03 13:59:30;;;;;;;6.40;4.05;;;;;;;;;;5085665;28;20032;-82
2023/03/03 14:02:17;;;;;;;10.07;4.88;;;;;;;;;;5085023;28;20372;-79
2023/03/03 14:04:59;;;;;;;11.52;5.20;;;;;;;;;;5085229;28;20020;-80
2023/03/03 14:07:40;;;;;;;8.48;4.85;;;;;;;;;;5081040;28;20028;-79
2023/03/03 14:10:29;;;;;;;7.65;4.82;;;;;;;;;;5085874;28;20487;-80
2023/03/03 14:13:07;;;;;;;6.20;4.13;;;;;;;;;;5097556;28;20032;-80
2023/03/03 14:15:57;;;;;;;8.82;4.85;;;;;;;;;;5087255;28;20050;-82
2023/03/03 14:18:34;;;;;;;6.80;4.47;;;;;;;;;;5082839;28;20028;-80
2023/03/03 14:21:09;;;;;;;10.98;4.95;;;;;;;;;;5089413;28;20032;-80
2023/03/03 14:23:56;;;;;;;7.22;5.07;;;;;;;;;;5104028;28;20070;-81
2023/03/03 14:26:21;;;;;;;5.25;3.58;;;;;;;;;;5079943;28;20512;-79
2023/03/03 14:28:48;;;;;;;7.15;4.55;;;;;;;;;;5087568;28;20028;-79
2023/03/03 14:31:15;;;;;;;8.07;5.18;;;;;;;;;;5091989;28;21199;-82
2023/03/03 14:33:46;;;;;;;7.50;4.78;;;;;;;;;;5089702;28;20031;-82
2023/03/03 14:36:14;;;;;;;8.50;5.03;;;;;;;;;;5090436;28;20032;-80
2023/03/03 14:38:43;;;;;;;6.00;3.20;;;;;;;;;;5085472;28;20474;-82
2023/03/03 14:41:34;;;;;;;9.20;4.50;;;;;;;;;;5086153;28;20032;-82
2023/03/03 14:44:26;;;;;;;7.93;5.10;;;;;;;;;;5101881;28;20020;-82
2023/03/03 14:47:20;;;;;;;6.13;4.40;;;;;;;;;;5090018;28;20040;-79
2023/03/03 14:49:46;;;;;;;9.50;5.93;;;;;;;;;;5089732;28;20031;-79
2023/03/03 14:52:14;;;;;;;8.40;5.80;;;;;;;;;;5083836;28;20099;-82
2023/03/03 14:55:26;;;;;;;6.20;4.35;;;;;;;;;;5090908;28;20426;-82
2023/03/03 14:57:51;;;;;;;7.25;4.13;;;;;;;;;;5090207;28;20020;-82
2023/03/03 15:00:23;;;;;;;7.85;5.85;;;;;;;;;;5079270;28;20039;-82
2023/03/03 15:02:51;;;;;;;8.25;5.85;;;;;;;;;;5104216;28;20035;-82
2023/03/03 15:05:18;;;;;;;7.22;4.30;;;;;;;;;;5086792;28;20024;-79
2023/03/03 15:07:46;;;;;;;9.55;5.15;;;;;;;;;;5088928;28;20716;-81
2023/03/03 15:10:24;;;;;;;7.88;5.00;;;;;;;;;;5086555;28;20024;-80
2023/03/03 15:12:50;;;;;;;7.13;5.53;;;;;;;;;;5105149;28;20062;-79
2023/03/03 15:15:26;;;;;;;8.80;5.18;;;;;;;;;;5090020;28;20484;-80
2023/03/03 15:17:55;;;;;;;9.25;6.38;;;;;;;;;;5085258;28;20356;-80